createdAt,value
2022-08-04T00:02:07.843Z,2.37
2022-08-04T00:04:53.375Z,2.50
2022-08-04T00:07:47.829Z,2.33
2022-08-04T00:10:18.903Z,2.70
2022-08-04T00:12:49.958Z,2.30
2022-08-04T00:15:18.053Z,2.50
2022-08-04T00:18:07.862Z,2.27
2022-08-04T00:20:39.026Z,2.30
2022-08-04T00:23:07.071Z,2.30
2022-08-04T00:25:34.474Z,3.20
2022-08-04T00:28:04.681Z,2.27
2022-08-04T00:30:32.489Z,2.27
2022-08-04T00:33:00.841Z,2.37
2022-08-04T00:35:29.319Z,2.03
2022-08-04T00:37:57.162Z,2.70
2022-08-04T00:40:42.445Z,2.40
2022-08-04T00:43:19.611Z,2.40
2022-08-04T00:46:10.956Z,2.10
2022-08-04T00:48:51.417Z,2.67
2022-08-04T00:51:39.959Z,2.83
2022-08-04T00:54:34.541Z,2.40
2022-08-04T00:57:33.514Z,2.67
2022-08-04T01:00:12.113Z,2.50
2022-08-04T01:03:06.913Z,3.10
2022-08-04T01:05:56.672Z,2.60
2022-08-04T01:08:36.579Z,2.90
2022-08-04T01:11:18.749Z,2.53
2022-08-04T01:14:09.775Z,3.13
2022-08-04T01:16:48.378Z,2.50
2022-08-04T01:19:47.702Z,2.93
2022-08-04T01:22:40.419Z,3.03
2022-08-04T01:25:42.565Z,2.90
2022-08-04T01:28:46.621Z,2.70
2022-08-04T01:31:39.278Z,2.87
2022-08-04T01:34:09.455Z,2.50
2022-08-04T01:36:36.982Z,3.10
2022-08-04T01:39:24.271Z,2.80
2022-08-04T01:41:58.272Z,2.60
2022-08-04T01:44:29.718Z,2.57
2022-08-04T01:46:56.703Z,2.60
2022-08-04T01:49:30.216Z,2.90
2022-08-04T01:52:09.313Z,2.63
2022-08-04T01:54:39.523Z,2.90
2022-08-04T01:57:36.926Z,2.70
2022-08-04T01:59:56.377Z,2.80
2022-08-04T02:02:26.348Z,2.50
2022-08-04T02:04:53.460Z,2.90
2022-08-04T02:07:26.355Z,2.60
2022-08-04T02:10:27.240Z,2.63
2022-08-04T02:13:20.237Z,2.40
2022-08-04T02:15:49.824Z,3.00
2022-08-04T02:18:32.442Z,2.50
2022-08-04T02:21:01.932Z,2.77
2022-08-04T02:23:41.841Z,2.83
2022-08-04T02:26:22.746Z,2.80
2022-08-04T02:29:28.174Z,2.17
2022-08-04T02:32:09.872Z,2.73
2022-08-04T02:35:02.727Z,2.63
2022-08-04T02:37:32.127Z,2.87
2022-08-04T02:40:01.671Z,2.77
2022-08-04T02:42:30.170Z,2.97
2022-08-04T02:44:59.554Z,2.50
2022-08-04T02:48:08.336Z,2.43
2022-08-04T02:50:28.283Z,3.07
2022-08-04T02:52:59.586Z,2.73
2022-08-04T02:55:29.178Z,2.63
2022-08-04T02:57:58.785Z,2.67
2022-08-04T03:00:26.656Z,2.73
2022-08-04T03:03:06.207Z,2.43
2022-08-04T03:06:22.536Z,2.80
2022-08-04T03:09:11.354Z,2.40
2022-08-04T03:11:53.238Z,2.40
2022-08-04T03:14:55.427Z,2.33
2022-08-04T03:17:52.995Z,3.10
2022-08-04T03:20:48.299Z,2.83
2022-08-04T03:23:27.223Z,2.87
2022-08-04T03:26:19.243Z,3.30
2022-08-04T03:29:13.475Z,3.20
2022-08-04T03:31:46.406Z,3.27
2022-08-04T03:34:52.645Z,3.60
2022-08-04T03:37:38.319Z,2.97
2022-08-04T03:40:37.468Z,2.73
2022-08-04T03:43:57.085Z,3.40
2022-08-04T03:46:15.687Z,2.30
2022-08-04T03:48:48.557Z,2.63
2022-08-04T03:52:01.749Z,2.60
2022-08-04T03:54:40.619Z,3.67
2022-08-04T03:57:51.895Z,4.90
2022-08-04T04:00:21.475Z,3.33
2022-08-04T04:03:28.801Z,3.80
2022-08-04T04:06:15.097Z,3.43
2022-08-04T04:09:03.351Z,3.90
2022-08-04T04:11:57.612Z,3.97
2022-08-04T04:14:33.869Z,3.57
2022-08-04T04:17:03.772Z,3.77
2022-08-04T04:19:42.539Z,3.40
2022-08-04T04:22:12.573Z,3.33
2022-08-04T04:24:57.445Z,3.67
2022-08-04T04:27:45.583Z,3.30
2022-08-04T04:30:44.582Z,2.77
2022-08-04T04:33:35.526Z,2.77
2022-08-04T04:36:02.347Z,3.37
2022-08-04T04:38:53.987Z,3.10
2022-08-04T04:41:23.917Z,3.50
2022-08-04T04:44:15.882Z,3.43
2022-08-04T04:46:57.635Z,3.60
2022-08-04T04:49:51.263Z,3.37
2022-08-04T04:52:27.543Z,3.20
2022-08-04T04:55:00.347Z,3.40
2022-08-04T04:57:54.748Z,3.00
2022-08-04T05:00:26.432Z,3.53
2022-08-04T05:03:35.076Z,3.10
2022-08-04T05:06:30.405Z,2.90
2022-08-04T05:09:00.179Z,3.13
2022-08-04T05:11:30.147Z,2.87
2022-08-04T05:14:36.437Z,2.67
2022-08-04T05:17:30.132Z,2.50
2022-08-04T05:20:08.671Z,2.90
2022-08-04T05:22:49.261Z,3.17
2022-08-04T05:25:27.496Z,2.93
2022-08-04T05:28:05.912Z,3.00
2022-08-04T05:30:48.505Z,2.87
2022-08-04T05:33:46.248Z,3.07
2022-08-04T05:36:39.567Z,2.83
2022-08-04T05:39:07.600Z,3.60
2022-08-04T05:41:45.263Z,3.00
2022-08-04T05:44:19.978Z,3.07
2022-08-04T05:46:53.904Z,3.30
2022-08-04T05:49:32.919Z,3.10
2022-08-04T05:52:05.119Z,3.20
2022-08-04T05:54:34.569Z,3.10
2022-08-04T05:57:04.846Z,2.60
2022-08-04T05:59:32.694Z,2.73
2022-08-04T06:02:01.196Z,2.73
2022-08-04T06:04:43.077Z,2.50
2022-08-04T06:07:13.000Z,2.80
2022-08-04T06:09:42.941Z,3.20
2022-08-04T06:12:18.909Z,3.00
2022-08-04T06:14:49.852Z,2.50
2022-08-04T06:19:57.815Z,2.80
2022-08-04T06:20:20.008Z,2.83
2022-08-04T06:22:56.860Z,2.60
2022-08-04T06:25:26.893Z,3.40
2022-08-04T06:27:55.986Z,2.47
2022-08-04T06:30:26.514Z,2.87
2022-08-04T06:33:04.102Z,2.50
2022-08-04T06:35:33.145Z,3.10
2022-08-04T06:38:02.286Z,2.97
2022-08-04T06:40:33.400Z,2.57
2022-08-04T06:43:07.841Z,2.90
2022-08-04T06:45:40.122Z,2.63
2022-08-04T06:48:09.351Z,3.00
2022-08-04T06:51:26.165Z,3.20
2022-08-04T06:53:30.156Z,2.63
2022-08-04T06:55:59.830Z,2.73
2022-08-04T06:58:31.636Z,2.77
2022-08-04T07:01:02.317Z,2.60
2022-08-04T07:03:31.024Z,3.10
2022-08-04T07:05:58.623Z,2.60
2022-08-04T07:08:32.677Z,2.50
2022-08-04T07:11:02.188Z,3.20
2022-08-04T07:13:32.103Z,3.20
2022-08-04T07:16:00.403Z,2.40
2022-08-04T07:18:30.707Z,1.80
2022-08-04T07:20:57.866Z,2.20
2022-08-04T07:23:27.500Z,2.30
2022-08-04T07:26:11.585Z,2.83
2022-08-04T07:28:40.902Z,2.90
2022-08-04T07:31:11.260Z,2.80
2022-08-04T07:34:16.838Z,2.97
2022-08-04T07:36:50.553Z,2.83
2022-08-04T07:39:27.406Z,1.93
2022-08-04T07:41:56.645Z,2.00
2022-08-04T07:44:23.574Z,2.57
2022-08-04T07:46:50.499Z,2.43
2022-08-04T07:49:55.319Z,1.83
2022-08-04T07:52:06.444Z,2.47
2022-08-04T07:54:35.086Z,2.20
2022-08-04T07:57:02.760Z,2.07
2022-08-04T07:59:29.723Z,2.20
2022-08-04T08:02:01.138Z,1.63
2022-08-04T08:04:29.785Z,2.10
2022-08-04T08:06:58.866Z,1.93
2022-08-04T08:09:26.123Z,1.80
2022-08-04T08:12:37.268Z,2.00
2022-08-04T08:14:42.694Z,2.43
2022-08-04T08:17:09.737Z,2.37
2022-08-04T08:19:36.976Z,2.00
2022-08-04T08:22:04.476Z,2.07
2022-08-04T08:24:34.900Z,2.40
2022-08-04T08:27:06.973Z,2.40
2022-08-04T08:29:35.450Z,1.80
2022-08-04T08:32:08.063Z,1.70
2022-08-04T08:34:35.816Z,1.70
2022-08-04T08:37:24.245Z,1.60
2022-08-04T08:40:40.249Z,2.17
2022-08-04T08:44:04.977Z,2.00
2022-08-04T08:46:48.783Z,2.90
2022-08-04T08:50:02.745Z,2.00
2022-08-04T08:52:15.573Z,2.17
2022-08-04T08:55:27.840Z,1.90
2022-08-04T08:57:59.887Z,2.20
2022-08-04T09:00:43.012Z,2.23
2022-08-04T09:03:40.531Z,2.37
2022-08-04T09:06:22.440Z,2.60
2022-08-04T09:09:04.395Z,2.50
2022-08-04T09:11:42.168Z,3.43
2022-08-04T09:14:50.529Z,2.10
2022-08-04T09:17:28.270Z,2.33
2022-08-04T09:20:22.738Z,2.30
2022-08-04T09:23:04.366Z,2.00
2022-08-04T09:25:39.023Z,1.90
2022-08-04T09:28:17.383Z,1.90
2022-08-04T09:31:02.978Z,2.00
2022-08-04T09:33:49.319Z,2.30
2022-08-04T09:36:34.805Z,2.30
2022-08-04T09:39:21.999Z,2.80
2022-08-04T09:42:14.605Z,1.80
2022-08-04T09:45:15.626Z,2.03
2022-08-04T09:48:00.262Z,2.50
2022-08-04T09:50:40.107Z,2.50
2022-08-04T09:53:34.995Z,2.00
2022-08-04T09:56:21.968Z,2.13
2022-08-04T09:59:20.629Z,1.73
2022-08-04T10:01:59.918Z,2.30
2022-08-04T10:04:31.193Z,1.93
2022-08-04T10:07:18.436Z,2.40
2022-08-04T10:09:58.067Z,2.10
2022-08-04T10:12:24.899Z,2.60
2022-08-04T10:15:12.792Z,1.90
2022-08-04T10:17:54.792Z,2.50
2022-08-04T10:20:49.358Z,1.57
2022-08-04T10:23:19.818Z,1.77
2022-08-04T10:26:17.693Z,2.40
2022-08-04T10:28:51.769Z,2.30
2022-08-04T10:31:28.148Z,1.97
2022-08-04T10:34:12.059Z,2.30
2022-08-04T10:36:51.792Z,1.93
2022-08-04T10:39:43.052Z,2.20
2022-08-04T10:42:22.752Z,2.30
2022-08-04T10:45:04.386Z,2.03
2022-08-04T10:47:38.279Z,2.00
2022-08-04T10:50:06.595Z,1.90
2022-08-04T10:52:46.460Z,2.23
2022-08-04T10:55:23.332Z,2.03
2022-08-04T10:58:18.504Z,2.10
2022-08-04T11:00:46.547Z,2.13
2022-08-04T11:03:38.691Z,2.30
2022-08-04T11:06:06.164Z,2.10
2022-08-04T11:08:36.872Z,4.00
2022-08-04T11:11:26.604Z,2.23
2022-08-04T11:14:12.736Z,1.70
2022-08-04T11:16:52.005Z,1.87
2022-08-04T11:19:45.399Z,1.90
2022-08-04T11:22:23.576Z,1.80
2022-08-04T11:25:13.660Z,1.70
2022-08-04T11:28:09.383Z,2.03
2022-08-04T11:30:53.768Z,2.03
2022-08-04T11:33:26.703Z,2.10
2022-08-04T11:36:07.607Z,2.20
2022-08-04T11:38:42.614Z,2.00
2022-08-04T11:41:18.803Z,2.30
2022-08-04T11:44:03.228Z,2.33
2022-08-04T11:46:49.053Z,2.93
2022-08-04T11:49:57.400Z,3.10
2022-08-04T11:52:27.104Z,1.93
2022-08-04T11:54:55.800Z,2.20
2022-08-04T11:57:35.500Z,2.10
2022-08-04T12:00:10.751Z,2.03
2022-08-04T12:03:15.331Z,2.30
2022-08-04T12:05:53.216Z,2.37
2022-08-04T12:08:45.635Z,2.10
2022-08-04T12:11:33.715Z,2.00
2022-08-04T12:14:19.866Z,2.20
2022-08-04T12:17:01.658Z,2.83
2022-08-04T12:20:02.418Z,2.20
2022-08-04T12:22:28.265Z,2.30
2022-08-04T12:25:13.783Z,2.43
2022-08-04T12:27:49.233Z,2.00
2022-08-04T12:30:57.732Z,2.10
2022-08-04T12:33:22.542Z,2.30
2022-08-04T12:36:11.225Z,2.33
2022-08-04T12:38:48.672Z,2.60
2022-08-04T12:41:23.227Z,2.30
2022-08-04T12:43:50.664Z,2.67
2022-08-04T12:46:26.880Z,2.03
2022-08-04T12:49:01.599Z,2.30
2022-08-04T12:52:06.199Z,2.40
2022-08-04T12:54:28.811Z,2.70
2022-08-04T12:56:58.917Z,2.33
2022-08-04T12:59:26.325Z,2.43
2022-08-04T13:02:08.058Z,2.20
2022-08-04T13:04:42.797Z,2.10
2022-08-04T13:07:24.779Z,2.30
2022-08-04T13:09:52.364Z,1.90
2022-08-04T13:12:32.609Z,2.07
2022-08-04T13:15:17.880Z,2.30
2022-08-04T13:17:59.254Z,2.23
2022-08-04T13:20:37.583Z,2.43
2022-08-04T13:23:14.449Z,1.90
2022-08-04T13:26:44.159Z,2.30
2022-08-04T13:28:45.239Z,2.50
2022-08-04T13:31:16.777Z,2.50
2022-08-04T13:33:46.446Z,2.30
2022-08-04T13:36:15.972Z,2.20
2022-08-04T13:38:52.155Z,2.13
2022-08-04T13:41:20.423Z,2.20
2022-08-04T13:44:19.133Z,2.10
2022-08-04T13:46:58.462Z,2.27
2022-08-04T13:49:38.140Z,2.40
2022-08-04T13:52:12.380Z,2.63
2022-08-04T13:54:43.530Z,1.97
2022-08-04T13:57:19.384Z,2.27
2022-08-04T13:59:51.552Z,2.00
2022-08-04T14:02:44.584Z,2.43
2022-08-04T14:05:36.985Z,2.50
2022-08-04T14:08:26.458Z,2.40
2022-08-04T14:10:57.839Z,2.07
2022-08-04T14:13:41.909Z,2.37
2022-08-04T14:16:21.948Z,2.30
2022-08-04T14:18:57.199Z,2.00
2022-08-04T14:21:24.815Z,2.30
2022-08-04T14:23:54.571Z,2.50
2022-08-04T14:26:32.656Z,2.10
2022-08-04T14:29:26.697Z,2.47
2022-08-04T14:32:22.835Z,2.80
2022-08-04T14:34:52.979Z,2.30
2022-08-04T14:37:22.529Z,2.17
2022-08-04T14:40:18.538Z,2.10
2022-08-04T14:42:55.430Z,2.20
2022-08-04T14:45:32.351Z,2.40
2022-08-04T14:48:01.052Z,2.00
2022-08-04T14:50:38.976Z,2.70
2022-08-04T14:53:11.258Z,2.10
2022-08-04T14:55:40.668Z,2.07
2022-08-04T14:58:35.425Z,2.37
2022-08-04T15:00:58.082Z,2.13
2022-08-04T15:03:25.608Z,2.40
2022-08-04T15:06:03.941Z,2.30
2022-08-04T15:08:33.092Z,2.37
2022-08-04T15:11:03.165Z,2.03
2022-08-04T15:13:32.553Z,2.30
2022-08-04T15:16:07.355Z,2.17
2022-08-04T15:18:39.405Z,2.17
2022-08-04T15:21:07.950Z,2.77
2022-08-04T15:23:39.382Z,2.00
2022-08-04T15:26:12.176Z,2.20
2022-08-04T15:28:41.609Z,2.17
2022-08-04T15:32:07.514Z,2.30
2022-08-04T15:33:58.055Z,2.10
2022-08-04T15:36:47.873Z,2.53
2022-08-04T15:39:50.323Z,1.83
2022-08-04T15:42:54.243Z,2.20
2022-08-04T15:45:21.335Z,2.20
2022-08-04T15:48:11.463Z,1.90
2022-08-04T15:50:58.501Z,1.83
2022-08-04T15:53:28.656Z,1.70
2022-08-04T15:56:38.319Z,1.73
2022-08-04T15:59:24.333Z,2.13
2022-08-04T16:02:30.876Z,1.90
2022-08-04T16:05:40.623Z,2.20
2022-08-04T16:08:15.965Z,2.20
2022-08-04T16:10:46.900Z,2.07
2022-08-04T16:13:16.370Z,2.40
2022-08-04T16:15:48.251Z,1.90
2022-08-04T16:18:27.331Z,1.70
2022-08-04T16:21:02.422Z,2.00
2022-08-04T16:23:57.977Z,2.27
2022-08-04T16:26:37.994Z,1.87
2022-08-04T16:29:23.554Z,1.87
2022-08-04T16:32:06.276Z,1.93
2022-08-04T16:34:55.637Z,1.87
2022-08-04T16:37:35.633Z,1.83
2022-08-04T16:40:34.515Z,1.80
2022-08-04T16:43:06.706Z,1.93
2022-08-04T16:45:54.071Z,1.60
2022-08-04T16:48:32.297Z,2.20
2022-08-04T16:51:07.376Z,1.77
2022-08-04T16:54:04.214Z,1.50
2022-08-04T16:56:34.239Z,1.63
2022-08-04T16:59:11.734Z,1.90
2022-08-04T17:01:49.057Z,1.77
2022-08-04T17:04:16.627Z,1.70
2022-08-04T17:06:46.653Z,1.80
2022-08-04T17:09:19.316Z,1.70
2022-08-04T17:11:48.241Z,1.80
2022-08-04T17:14:26.295Z,1.93
2022-08-04T17:16:56.121Z,1.80
2022-08-04T17:19:26.583Z,1.73
2022-08-04T17:22:10.406Z,1.40
2022-08-04T17:24:40.859Z,1.63
2022-08-04T17:28:09.988Z,2.20
2022-08-04T17:29:55.843Z,1.83
2022-08-04T17:32:24.147Z,2.07
2022-08-04T17:34:57.654Z,1.60
2022-08-04T17:37:52.569Z,1.90
2022-08-04T17:40:18.559Z,2.57
2022-08-04T17:44:05.061Z,1.90
2022-08-04T17:46:28.822Z,2.90
2022-08-04T17:49:16.591Z,2.57
2022-08-04T17:52:04.247Z,2.70
2022-08-04T17:54:36.534Z,2.50
2022-08-04T17:57:21.352Z,2.60
2022-08-04T17:59:59.222Z,2.50
2022-08-04T18:05:50.325Z,2.50
2022-08-04T18:08:35.588Z,2.20
2022-08-04T18:11:02.434Z,2.70
2022-08-04T18:13:31.382Z,2.53
2022-08-04T18:16:22.564Z,2.87
2022-08-04T18:19:13.683Z,2.97
2022-08-04T18:21:46.443Z,2.83
2022-08-04T18:24:34.363Z,2.80
2022-08-04T18:27:06.620Z,2.77
2022-08-04T18:29:39.186Z,2.60
2022-08-04T18:32:08.938Z,3.23
2022-08-04T18:34:40.919Z,2.50
2022-08-04T18:38:05.007Z,2.80
2022-08-04T18:40:27.362Z,2.97
2022-08-04T18:42:57.493Z,2.90
2022-08-04T18:45:33.947Z,3.30
2022-08-04T18:48:04.155Z,3.20
2022-08-04T18:51:10.030Z,2.90
2022-08-04T18:53:35.995Z,2.90
2022-08-04T18:56:06.404Z,2.90
2022-08-04T18:58:47.235Z,2.60
2022-08-04T19:01:15.575Z,3.00
2022-08-04T19:03:44.761Z,2.70
2022-08-04T19:06:15.918Z,3.20
2022-08-04T19:08:45.014Z,2.80
2022-08-04T19:11:36.833Z,2.60
2022-08-04T19:14:01.842Z,2.80
2022-08-04T19:16:31.679Z,2.90
2022-08-04T19:19:02.021Z,2.90
2022-08-04T19:22:00.283Z,2.97
2022-08-04T19:24:31.938Z,2.80
2022-08-04T19:27:02.408Z,3.33
2022-08-04T19:29:37.390Z,3.27
2022-08-04T19:32:15.221Z,3.23
2022-08-04T19:37:56.661Z,3.80
2022-08-04T19:40:33.639Z,3.80
2022-08-04T19:43:14.460Z,2.83
2022-08-04T19:45:44.929Z,3.10
2022-08-04T19:48:18.816Z,2.90
2022-08-04T19:50:47.328Z,3.20
2022-08-04T19:53:18.999Z,3.67
2022-08-04T19:58:34.723Z,3.03
2022-08-04T20:01:01.904Z,3.23
2022-08-04T20:04:08.470Z,3.10
2022-08-04T20:06:16.274Z,3.07
2022-08-04T20:08:47.989Z,3.50
2022-08-04T20:11:15.173Z,3.37
2022-08-04T20:13:43.163Z,3.60
2022-08-04T20:16:28.796Z,3.37
2022-08-04T20:19:02.740Z,3.90
2022-08-04T20:21:54.415Z,3.27
2022-08-04T20:27:07.725Z,3.83
2022-08-04T20:29:40.847Z,2.70
2022-08-04T20:32:10.402Z,3.63
2022-08-04T20:34:41.411Z,3.70
2022-08-04T20:40:01.502Z,3.23
2022-08-04T20:42:33.750Z,3.50
2022-08-04T20:45:02.629Z,3.87
2022-08-04T20:47:35.848Z,3.40
2022-08-04T20:50:09.161Z,3.63
2022-08-04T20:52:37.785Z,3.20
2022-08-04T20:55:06.214Z,3.93
2022-08-04T20:57:47.634Z,3.10
2022-08-04T21:00:16.616Z,3.67
2022-08-04T21:02:44.487Z,3.70
2022-08-04T21:05:11.653Z,3.60
2022-08-04T21:07:43.859Z,3.37
2022-08-04T21:10:17.341Z,3.60
2022-08-04T21:15:57.951Z,3.90
2022-08-04T21:18:29.242Z,3.03
2022-08-04T21:20:56.869Z,3.30
2022-08-04T21:23:24.273Z,3.30
2022-08-04T21:26:05.072Z,4.10
2022-08-04T21:28:37.864Z,3.50
2022-08-04T21:31:11.293Z,3.73
2022-08-04T21:36:36.567Z,4.27
2022-08-04T21:39:04.441Z,3.20
2022-08-04T21:42:10.283Z,3.43
2022-08-04T21:44:27.220Z,3.30
2022-08-04T21:46:54.673Z,3.20
2022-08-04T21:49:21.615Z,4.07
2022-08-04T21:51:58.808Z,3.43
2022-08-04T21:54:27.762Z,2.97
2022-08-04T21:56:54.662Z,3.17
2022-08-04T21:59:23.774Z,3.80
2022-08-04T22:01:58.268Z,3.57
2022-08-04T22:04:27.748Z,3.40
2022-08-04T22:06:54.766Z,3.10
2022-08-04T22:09:22.395Z,3.40
2022-08-04T22:11:51.543Z,3.87
2022-08-04T22:14:27.639Z,3.40
2022-08-04T22:17:01.044Z,3.33
2022-08-04T22:19:40.791Z,3.73
2022-08-04T22:22:24.783Z,3.60
2022-08-04T22:24:54.940Z,3.40
2022-08-04T22:27:40.322Z,3.60
2022-08-04T22:30:17.753Z,3.57
2022-08-04T22:32:47.204Z,3.30
2022-08-04T22:35:43.889Z,3.87
2022-08-04T22:38:06.898Z,3.70
2022-08-04T22:40:38.599Z,4.00
2022-08-04T22:43:07.414Z,3.43
2022-08-04T22:45:52.543Z,3.13
2022-08-04T22:48:19.539Z,2.77
2022-08-04T22:50:46.565Z,3.33
2022-08-04T22:53:17.733Z,3.30
2022-08-04T22:56:07.513Z,3.70
2022-08-04T22:58:32.311Z,2.70
2022-08-04T23:00:59.641Z,3.30
2022-08-04T23:03:36.886Z,2.77
2022-08-04T23:06:10.557Z,3.67
2022-08-04T23:08:39.459Z,3.97
2022-08-04T23:11:11.219Z,3.40
2022-08-04T23:13:38.366Z,2.90
2022-08-04T23:16:09.947Z,3.37
2022-08-04T23:18:41.864Z,3.67
2022-08-04T23:21:10.414Z,3.87
2022-08-04T23:23:55.261Z,3.67
2022-08-04T23:26:27.306Z,3.43
2022-08-04T23:28:56.320Z,3.93
2022-08-04T23:31:24.073Z,4.20
2022-08-04T23:33:52.361Z,3.47
2022-08-04T23:36:29.955Z,3.70
2022-08-04T23:39:03.897Z,3.60
2022-08-04T23:41:54.790Z,3.30
2022-08-04T23:44:24.789Z,3.60
2022-08-04T23:47:01.272Z,3.60
2022-08-04T23:49:44.287Z,3.80
2022-08-04T23:52:28.210Z,3.47
2022-08-04T23:55:00.867Z,3.83
2022-08-04T23:58:05.373Z,2.80
